»·PEaware :: N982CA KRBG-KMCC

N982CA :: KRBG-KMCC

FLIGHT INFORMATION

Flight Status: Arrived
Operator: Privately registered:
United States
More flights under this callsign
Pilot: Anonymous 15639 (15639)
Aircraft: Unknown
(KODI)
More flights by this aircraft type
Origin: KRBG Roseburg Regl
United States
Destination: KMCC McClellan
United States
More flights between these airports :: More routes between these airports
Route: +
File this flight plan on PilotEdge
Remarks:
Altitude:
(Current/Filed)
9,500ft
Speed:
(Current/Filed)
0kts
Departed: 20-Jul-17 01:39 PM
Arrived: 20-Jul-17 03:29 PM
Distance/Time
Traveled:
288nm/1:50
Distance/Time
To Go:
Arrived

Flight Plot

Page will automatically refresh every two minutes.

Flight plan parsing failed; only flown route is shown


Map Options




Map Legend


Flown Route
Filed Route
Departure Airport
Arrival Airport
Navaid (VOR, NDB)
Fix

Horizontal Profiles

Position Reports

Time Latitude Longitude Heading Altitude Ground
Speed
20-Jul-17 13:41 43.244835 -123.382226 164 9529ft 162kts
20-Jul-17 13:42 43.202337 -123.360690 163 9529ft 163kts
20-Jul-17 13:43 43.161811 -123.345232 172 9527ft 161kts
20-Jul-17 13:44 43.118074 -123.334019 175 9527ft 160kts
20-Jul-17 13:45 43.075305 -123.325199 174 9527ft 160kts
20-Jul-17 13:46 43.033042 -123.316488 174 9527ft 160kts
20-Jul-17 13:47 42.990257 -123.308053 174 9527ft 161kts
20-Jul-17 13:48 42.947109 -123.300150 174 9527ft 162kts
20-Jul-17 13:49 42.902281 -123.296015 178 9527ft 163kts
20-Jul-17 13:50 42.858672 -123.293463 178 9529ft 165kts
20-Jul-17 13:51 42.812751 -123.290987 178 9524ft 165kts
20-Jul-17 13:52 42.766807 -123.288691 178 9518ft 165kts
20-Jul-17 13:53 42.721940 -123.284097 174 9513ft 165kts
20-Jul-17 13:54 42.675311 -123.275747 174 9503ft 173kts
20-Jul-17 13:55 42.628097 -123.265728 173 9541ft 174kts
20-Jul-17 13:56 42.580742 -123.255502 173 9530ft 173kts
20-Jul-17 13:57 42.533708 -123.245384 173 9525ft 172kts
20-Jul-17 13:58 42.486592 -123.235242 173 9525ft 172kts
20-Jul-17 13:59 42.439659 -123.225973 174 9525ft 172kts
20-Jul-17 14:00 42.392609 -123.217079 174 9525ft 172kts
20-Jul-17 14:01 42.346012 -123.208267 174 9525ft 172kts
20-Jul-17 14:02 42.298864 -123.199345 174 9525ft 172kts
20-Jul-17 14:03 42.251698 -123.190412 174 9525ft 172kts
20-Jul-17 14:04 42.206626 -123.173699 161 9523ft 172kts
20-Jul-17 14:05 42.161756 -123.150620 162 9498ft 174kts
20-Jul-17 14:06 42.116649 -123.128327 162 9497ft 174kts
20-Jul-17 14:07 42.071536 -123.106044 162 9497ft 174kts
20-Jul-17 14:08 42.026309 -123.084103 162 9498ft 174kts
20-Jul-17 14:09 41.981012 -123.062139 162 9500ft 174kts
20-Jul-17 14:10 41.935862 -123.040223 162 9502ft 174kts
20-Jul-17 14:11 41.892901 -123.019390 163 9507ft 173kts
20-Jul-17 14:12 41.849529 -122.998387 163 9511ft 173kts
20-Jul-17 14:13 41.804613 -122.976666 163 9514ft 173kts
20-Jul-17 14:14 41.759507 -122.954888 163 9516ft 173kts
20-Jul-17 14:15 41.714601 -122.933235 163 9516ft 173kts
20-Jul-17 14:16 41.669812 -122.911673 163 9516ft 173kts
20-Jul-17 14:17 41.624863 -122.890067 163 9516ft 173kts
20-Jul-17 14:18 41.580300 -122.868675 163 9516ft 173kts
20-Jul-17 14:19 41.535500 -122.847199 163 9516ft 173kts
20-Jul-17 14:20 41.491433 -122.826086 163 9645ft 170kts
20-Jul-17 14:21 41.446826 -122.804747 162 9645ft 173kts
20-Jul-17 14:22 41.401680 -122.784794 166 9645ft 172kts
20-Jul-17 14:23 41.356251 -122.766097 165 9645ft 172kts
20-Jul-17 14:24 41.311062 -122.746865 165 9644ft 172kts
20-Jul-17 14:25 41.265920 -122.727528 165 9644ft 172kts
20-Jul-17 14:26 41.220889 -122.708227 165 9644ft 172kts
20-Jul-17 14:27 41.175749 -122.688903 165 9644ft 172kts
20-Jul-17 14:28 41.130602 -122.669599 165 9644ft 172kts
20-Jul-17 14:29 41.085427 -122.650342 165 9622ft 172kts
20-Jul-17 14:30 41.040387 -122.631177 164 9584ft 171kts
20-Jul-17 14:31 40.995802 -122.612218 164 9546ft 169kts
20-Jul-17 14:32 40.951649 -122.593453 163 9515ft 168kts
20-Jul-17 14:33 40.907938 -122.574831 163 9515ft 167kts
20-Jul-17 14:34 40.867157 -122.557528 163 9517ft 168kts
20-Jul-17 14:35 40.823303 -122.538950 163 9517ft 167kts
20-Jul-17 14:36 40.779579 -122.520464 163 9517ft 167kts
20-Jul-17 14:37 40.735804 -122.501982 163 9517ft 167kts
20-Jul-17 14:38 40.692007 -122.483516 163 9517ft 167kts
20-Jul-17 14:39 40.648299 -122.465114 163 9517ft 167kts
20-Jul-17 14:40 40.604757 -122.446806 163 9517ft 167kts
20-Jul-17 14:41 40.561011 -122.428437 163 9517ft 167kts
20-Jul-17 14:42 40.517465 -122.410178 163 9517ft 167kts
20-Jul-17 14:43 40.473688 -122.391847 163 9517ft 167kts
20-Jul-17 14:44 40.430056 -122.373602 163 9516ft 167kts
20-Jul-17 14:45 40.386356 -122.355354 163 9516ft 167kts
20-Jul-17 14:46 40.346437 -122.338711 164 9515ft 167kts
20-Jul-17 14:47 40.302798 -122.320535 164 9515ft 167kts
20-Jul-17 14:48 40.259156 -122.302386 164 9509ft 167kts
20-Jul-17 14:49 40.215694 -122.284331 164 9509ft 166kts
20-Jul-17 14:50 40.172297 -122.266327 164 9509ft 166kts
20-Jul-17 14:51 40.128736 -122.248279 164 9509ft 166kts
20-Jul-17 14:52 40.085497 -122.228982 159 9509ft 167kts
20-Jul-17 14:53 40.042863 -122.206677 159 9509ft 167kts
20-Jul-17 14:54 40.000281 -122.184383 160 9508ft 167kts
20-Jul-17 14:55 39.957886 -122.162338 159 9512ft 166kts
20-Jul-17 14:56 39.915493 -122.140202 159 9518ft 165kts
20-Jul-17 14:57 39.874523 -122.118553 160 9526ft 174kts
20-Jul-17 14:58 39.829748 -122.095258 160 9528ft 175kts
20-Jul-17 14:59 39.785126 -122.072002 160 9528ft 175kts
20-Jul-17 15:00 39.740212 -122.048605 160 9528ft 175kts
20-Jul-17 15:01 39.695479 -122.025332 160 9528ft 175kts
20-Jul-17 15:02 39.650656 -122.002467 171 9520ft 174kts
20-Jul-17 15:03 39.603609 -122.004112 184 9528ft 171kts
20-Jul-17 15:04 39.556358 -122.006137 184 9528ft 172kts
20-Jul-17 15:05 39.509465 -122.008113 183 9503ft 168kts
20-Jul-17 15:06 39.463738 -122.010227 182 9504ft 165kts
20-Jul-17 15:07 39.418333 -122.012227 182 9506ft 165kts
20-Jul-17 15:08 39.372970 -122.014208 182 9508ft 165kts
20-Jul-17 15:09 39.327513 -122.016174 181 9507ft 165kts
20-Jul-17 15:10 39.281316 -122.017820 184 9508ft 171kts
20-Jul-17 15:11 39.233866 -122.020114 184 9505ft 172kts
20-Jul-17 15:12 39.186500 -122.022235 184 9503ft 172kts
20-Jul-17 15:13 39.139340 -122.024281 184 9503ft 172kts
20-Jul-17 15:14 39.091938 -122.026330 184 9503ft 172kts
20-Jul-17 15:15 39.053168 -121.998297 131 9532ft 178kts
20-Jul-17 15:16 39.021702 -121.949679 131 9528ft 178kts
20-Jul-17 15:17 38.990397 -121.900835 130 9526ft 178kts
20-Jul-17 15:18 38.959590 -121.852708 130 9383ft 170kts
20-Jul-17 15:19 38.929587 -121.805931 130 8586ft 171kts
20-Jul-17 15:20 38.900071 -121.759938 130 7742ft 172kts
20-Jul-17 15:21 38.875432 -121.721583 130 6944ft 173kts
20-Jul-17 15:22 38.868293 -121.665825 79 5938ft 166kts
20-Jul-17 15:23 38.875394 -121.609542 81 4728ft 157kts
20-Jul-17 15:24 38.881288 -121.554975 81 3532ft 154kts
20-Jul-17 15:25 38.863006 -121.511466 128 2687ft 140kts
20-Jul-17 15:26 38.838942 -121.474311 121 2041ft 134kts
20-Jul-17 15:27 38.818888 -121.433587 136 1484ft 134kts
20-Jul-17 15:28 38.789147 -121.407770 156 1505ft 127kts
20-Jul-17 15:29 38.754691 -121.400346 178 1451ft 118kts
20-Jul-17 15:30 38.722007 -121.400552 179 945ft 114kts
20-Jul-17 15:31 38.696207 -121.400596 178 368ft 83kts
20-Jul-17 15:32 38.676170 -121.400585 176 69ft 33kts
20-Jul-17 15:33 38.672987 -121.397824 180 69ft 14kts
20-Jul-17 15:34 38.668501 -121.397836 179 69ft 17kts
20-Jul-17 15:35 38.666902 -121.395394 87 69ft 11kts
20-Jul-17 15:36 38.665600 -121.394602 178 69ft 0kts
20-Jul-17 15:37 38.665600 -121.394602 178 69ft 0kts

Navigation Log

Ident Type
Flight plan parsing failed, navigation log unavailable